Terminal Aerodrome Forecast
Issued by NWS

Home | Current Version | Previous Version | Text Only | Print | Product List | Glossary On
Versions: 1 2 3 4 5 6 7 8 9 10 11 12 13 14 15 16 17 18
000
FTUS42 KMLB 080019 RRA
TAFSUA
TAF
KSUA 080019Z 0800/0824 11006KT P6SM FEW030 BKN250
     FM080400 00000KT P6SM FEW120 BKN250
     FM081400 12009KT P6SM SCT030 SCT250
     FM081800 11011KT P6SM SCT040=

USA.gov is the U.S. government's official web portal to all federal, state and local government web resources and services.